Centennial, Colorado
Current Conditions -  °F | °C
As of 9:58 PM on Saturday 20 Dec 2014 (Local Time) from KBKF Reporting Station
Broken Clouds Broken Clouds  
Wind Chill: 29°   Ceiling: 20000
Heat Index: 35°   Visibility: 10mi
Dew Point: 22°   Wind: 7mph
Humidity: 58%   Direction: 290°WNW
Pressure: 29.93"   Gusts: NA
Location:  39.6608°N, 104.835°W
Report Text: KBKF 210458Z 29006KT 10SM FEW120 BKN200 02/M06 A2993 RMK AO2A SLP130 T00161058
Loading
Personal Weather Stations






























Interactive Weather Map New forecast layout! Learn more

10-Day Weather Forecast

Advertisements
Track Severe Weather on mobile